International Virtual Aviation Organisation

Russian Federation and Kazakhstan MCD

 

Карточка аэропорта UAAA

Внимание!
Информация на этой странице в стадии наполнения.
Если вы не увидели какой-то информации, или заметили неточность - пожалуйста сообщите нам!
Спасибо!
Команда RU-STAFF
Название аэропортаАлматы
Название аэропорта (англ.)Almaty
Превышение2238 ft. (682.1 m.)
Координаты43°21.072', 77°1.5960000000001'
Высота перехода600
Эшелон переходаFL070
Коды ответчика3501-3517, 3401-3427
Зона ОрВДАлматы РПИ (UAAA)
Данные METARNODATA
Проноз погоды (TAF)UAAA 031700Z 0318/0418 22003G08MPS 1500 BR FU BKN011CB BKN100 TX03/0409Z TNM06/0401Z TEMPO 0318/0403 16003MPS 0400 FZFG VV002 BECMG 0404/0405 32003G09MPS 3100 -SHSN BR TEMPO 0410/0414 26003G12MPS 1500 SHSN BR BKN004 OVC011CB TEMPO 0414/0418 0600 -SHSN FZFG BKN002 OVC007CB
NOTAMshow/hide NOTAM
AWOS   TABLE

Информация о ВПП

ВПП Длина ВПП (м.) Покрытие Курс ВПП Частота ILS
05L4500Бетон51109.1
23R4500Бетон231111.3
05R4400Асфальтобетон51110.3
23L4400Асфальтобетон231108.1

Диспетчерские позиции

Позывной Наименование органа УВД Частота
UAAA_APPАлматы-Подход124.8
UAAA_TWRАлматы-Вышка119.4
UAAA_GNDАлматы-Руление121.7
UAAA_R_APPАлматы-Круг120.8



Спутниковое изображение